sensor_id;sensor_type;location;lat;lon;timestamp;temperature;humidity
32524;DHT22;18965;52.242;20.886;2023-02-20T00:13:00;3.40;73.00
32524;DHT22;18965;52.242;20.886;2023-02-20T00:15:30;3.40;70.80
32524;DHT22;18965;52.242;20.886;2023-02-20T00:18:00;3.50;70.20
32524;DHT22;18965;52.242;20.886;2023-02-20T00:25:22;3.50;70.20
32524;DHT22;18965;52.242;20.886;2023-02-20T00:27:48;3.60;71.70
32524;DHT22;18965;52.242;20.886;2023-02-20T00:30:19;3.50;70.70
32524;DHT22;18965;52.242;20.886;2023-02-20T00:32:46;3.60;70.40
32524;DHT22;18965;52.242;20.886;2023-02-20T00:35:14;3.50;70.20
32524;DHT22;18965;52.242;20.886;2023-02-20T00:37:44;3.50;70.00
32524;DHT22;18965;52.242;20.886;2023-02-20T00:40:12;3.40;70.30
32524;DHT22;18965;52.242;20.886;2023-02-20T00:45:05;3.60;70.00
32524;DHT22;18965;52.242;20.886;2023-02-20T00:52:25;3.40;70.60
32524;DHT22;18965;52.242;20.886;2023-02-20T01:02:16;3.50;70.40
32524;DHT22;18965;52.242;20.886;2023-02-20T01:05:00;3.40;70.30
32524;DHT22;18965;52.242;20.886;2023-02-20T01:07:27;3.50;71.90
32524;DHT22;18965;52.242;20.886;2023-02-20T01:14:56;3.40;70.30
32524;DHT22;18965;52.242;20.886;2023-02-20T01:17:26;3.40;70.20
32524;DHT22;18965;52.242;20.886;2023-02-20T01:27:21;3.30;70.60
32524;DHT22;18965;52.242;20.886;2023-02-20T01:29:50;3.30;70.70
32524;DHT22;18965;52.242;20.886;2023-02-20T01:32:26;3.30;70.50
32524;DHT22;18965;52.242;20.886;2023-02-20T01:35:17;3.30;70.70
32524;DHT22;18965;52.242;20.886;2023-02-20T01:37:46;3.30;70.70
32524;DHT22;18965;52.242;20.886;2023-02-20T01:40:57;3.30;71.10
32524;DHT22;18965;52.242;20.886;2023-02-20T01:43:36;3.30;71.20
32524;DHT22;18965;52.242;20.886;2023-02-20T01:51:55;3.30;71.20
32524;DHT22;18965;52.242;20.886;2023-02-20T01:54:32;3.30;71.00
32524;DHT22;18965;52.242;20.886;2023-02-20T01:57:07;3.30;71.00
32524;DHT22;18965;52.242;20.886;2023-02-20T01:59:37;3.30;71.00
32524;DHT22;18965;52.242;20.886;2023-02-20T02:02:10;3.30;71.10
32524;DHT22;18965;52.242;20.886;2023-02-20T02:04:38;3.30;71.20
32524;DHT22;18965;52.242;20.886;2023-02-20T02:09:43;3.30;71.10
32524;DHT22;18965;52.242;20.886;2023-02-20T02:14:41;3.30;72.90
32524;DHT22;18965;52.242;20.886;2023-02-20T02:20:55;3.30;71.30
32524;DHT22;18965;52.242;20.886;2023-02-20T02:29:03;3.30;71.30
32524;DHT22;18965;52.242;20.886;2023-02-20T02:37:18;3.70;71.60
32524;DHT22;18965;52.242;20.886;2023-02-20T02:40:22;3.30;71.50
32524;DHT22;18965;52.242;20.886;2023-02-20T02:43:12;3.50;72.90
32524;DHT22;18965;52.242;20.886;2023-02-20T02:51:54;3.40;79.40
32524;DHT22;18965;52.242;20.886;2023-02-20T02:54:25;3.30;71.80
32524;DHT22;18965;52.242;20.886;2023-02-20T02:57:54;3.30;71.70
32524;DHT22;18965;52.242;20.886;2023-02-20T03:00:10;3.30;71.70
32524;DHT22;18965;52.242;20.886;2023-02-20T03:02:48;3.30;71.90
32524;DHT22;18965;52.242;20.886;2023-02-20T03:05:22;3.30;72.10
32524;DHT22;18965;52.242;20.886;2023-02-20T03:07:53;3.30;71.80
32524;DHT22;18965;52.242;20.886;2023-02-20T03:10:24;3.30;71.90
32524;DHT22;18965;52.242;20.886;2023-02-20T03:12:59;3.30;71.80
32524;DHT22;18965;52.242;20.886;2023-02-20T03:15:36;3.30;71.90
32524;DHT22;18965;52.242;20.886;2023-02-20T03:18:28;3.30;71.80
32524;DHT22;18965;52.242;20.886;2023-02-20T03:21:12;3.30;71.80
32524;DHT22;18965;52.242;20.886;2023-02-20T03:23:53;3.30;72.10
32524;DHT22;18965;52.242;20.886;2023-02-20T03:26:22;3.30;73.50
32524;DHT22;18965;52.242;20.886;2023-02-20T03:29:10;3.30;71.80
32524;DHT22;18965;52.242;20.886;2023-02-20T03:31:47;3.30;71.80
32524;DHT22;18965;52.242;20.886;2023-02-20T03:34:24;3.30;71.70
32524;DHT22;18965;52.242;20.886;2023-02-20T03:37:20;3.30;72.00
32524;DHT22;18965;52.242;20.886;2023-02-20T03:40:11;3.30;72.00
32524;DHT22;18965;52.242;20.886;2023-02-20T03:43:01;3.30;71.80
32524;DHT22;18965;52.242;20.886;2023-02-20T03:45:46;3.40;73.70
32524;DHT22;18965;52.242;20.886;2023-02-20T03:48:36;3.20;71.80
32524;DHT22;18965;52.242;20.886;2023-02-20T03:56:44;3.20;72.10
32524;DHT22;18965;52.242;20.886;2023-02-20T03:59:36;3.10;72.00
32524;DHT22;18965;52.242;20.886;2023-02-20T04:02:07;3.10;72.00
32524;DHT22;18965;52.242;20.886;2023-02-20T04:05:01;3.20;72.20
32524;DHT22;18965;52.242;20.886;2023-02-20T04:14:04;3.10;72.50
32524;DHT22;18965;52.242;20.886;2023-02-20T04:16:55;3.10;72.40
32524;DHT22;18965;52.242;20.886;2023-02-20T04:19:53;3.10;72.50
32524;DHT22;18965;52.242;20.886;2023-02-20T04:22:25;3.10;73.30
32524;DHT22;18965;52.242;20.886;2023-02-20T04:25:05;3.00;72.30
32524;DHT22;18965;52.242;20.886;2023-02-20T04:27:50;3.10;72.50
32524;DHT22;18965;52.242;20.886;2023-02-20T04:32:42;3.10;73.30
32524;DHT22;18965;52.242;20.886;2023-02-20T04:35:22;3.00;72.60
32524;DHT22;18965;52.242;20.886;2023-02-20T04:37:57;3.00;72.80
32524;DHT22;18965;52.242;20.886;2023-02-20T04:40:24;3.00;73.50
32524;DHT22;18965;52.242;20.886;2023-02-20T04:48:43;3.10;72.90
32524;DHT22;18965;52.242;20.886;2023-02-20T04:51:32;3.10;72.90
32524;DHT22;18965;52.242;20.886;2023-02-20T04:54:07;3.10;73.10
32524;DHT22;18965;52.242;20.886;2023-02-20T04:56:46;3.10;73.10
32524;DHT22;18965;52.242;20.886;2023-02-20T05:01:45;3.20;73.50
32524;DHT22;18965;52.242;20.886;2023-02-20T05:04:23;3.20;73.30
32524;DHT22;18965;52.242;20.886;2023-02-20T05:06:51;3.20;73.50
32524;DHT22;18965;52.242;20.886;2023-02-20T05:09:19;3.20;73.50
32524;DHT22;18965;52.242;20.886;2023-02-20T05:11:59;3.30;73.50
32524;DHT22;18965;52.242;20.886;2023-02-20T05:14:26;4.10;74.60
32524;DHT22;18965;52.242;20.886;2023-02-20T05:24:51;3.40;73.40
32524;DHT22;18965;52.242;20.886;2023-02-20T05:27:21;3.40;73.40
32524;DHT22;18965;52.242;20.886;2023-02-20T05:29:54;3.40;73.50
32524;DHT22;18965;52.242;20.886;2023-02-20T05:33:04;3.40;73.40
32524;DHT22;18965;52.242;20.886;2023-02-20T05:36:00;3.50;73.40
32524;DHT22;18965;52.242;20.886;2023-02-20T05:39:12;3.70;74.00
32524;DHT22;18965;52.242;20.886;2023-02-20T05:42:12;4.10;73.80
32524;DHT22;18965;52.242;20.886;2023-02-20T05:45:11;3.60;73.50
32524;DHT22;18965;52.242;20.886;2023-02-20T05:57:53;3.30;75.00
32524;DHT22;18965;52.242;20.886;2023-02-20T06:07:49;3.50;77.50
32524;DHT22;18965;52.242;20.886;2023-02-20T06:17:40;6.50;74.90
32524;DHT22;18965;52.242;20.886;2023-02-20T06:20:12;3.90;73.30
32524;DHT22;18965;52.242;20.886;2023-02-20T06:34:49;4.10;73.20
32524;DHT22;18965;52.242;20.886;2023-02-20T06:37:15;4.20;76.50
32524;DHT22;18965;52.242;20.886;2023-02-20T06:39:41;4.30;73.30
32524;DHT22;18965;52.242;20.886;2023-02-20T06:44:37;2.80;72.20
32524;DHT22;18965;52.242;20.886;2023-02-20T06:47:05;4.40;76.70
32524;DHT22;18965;52.242;20.886;2023-02-20T06:49:36;4.50;73.10
32524;DHT22;18965;52.242;20.886;2023-02-20T06:52:03;4.50;73.20
32524;DHT22;18965;52.242;20.886;2023-02-20T06:54:31;4.60;73.00
32524;DHT22;18965;52.242;20.886;2023-02-20T07:01:50;4.80;73.30
32524;DHT22;18965;52.242;20.886;2023-02-20T07:04:23;4.70;72.70
32524;DHT22;18965;52.242;20.886;2023-02-20T07:11:51;5.10;72.70
32524;DHT22;18965;52.242;20.886;2023-02-20T07:14:17;5.20;75.10
32524;DHT22;18965;52.242;20.886;2023-02-20T07:26:28;5.50;72.40
32524;DHT22;18965;52.242;20.886;2023-02-20T07:28:55;5.50;77.70
32524;DHT22;18965;52.242;20.886;2023-02-20T07:31:26;5.60;72.30
32524;DHT22;18965;52.242;20.886;2023-02-20T07:36:19;6.50;72.80
32524;DHT22;18965;52.242;20.886;2023-02-20T07:38:58;5.40;73.40
32524;DHT22;18965;52.242;20.886;2023-02-20T07:41:26;6.00;71.90
32524;DHT22;18965;52.242;20.886;2023-02-20T07:43:55;6.00;71.60
32524;DHT22;18965;52.242;20.886;2023-02-20T07:48:47;6.00;75.40
32524;DHT22;18965;52.242;20.886;2023-02-20T07:51:13;6.10;74.40
32524;DHT22;18965;52.242;20.886;2023-02-20T07:53:45;6.20;71.60
32524;DHT22;18965;52.242;20.886;2023-02-20T07:56:11;6.30;72.20
32524;DHT22;18965;52.242;20.886;2023-02-20T08:01:03;6.50;71.60
32524;DHT22;18965;52.242;20.886;2023-02-20T08:05:58;6.60;73.00
32524;DHT22;18965;52.242;20.886;2023-02-20T08:13:20;6.80;71.00
32524;DHT22;18965;52.242;20.886;2023-02-20T08:15:48;6.80;70.30
32524;DHT22;18965;52.242;20.886;2023-02-20T08:18:17;9.40;72.20
32524;DHT22;18965;52.242;20.886;2023-02-20T08:23:20;7.00;70.50
32524;DHT22;18965;52.242;20.886;2023-02-20T08:28:13;7.00;70.60
32524;DHT22;18965;52.242;20.886;2023-02-20T08:33:05;7.00;70.30
32524;DHT22;18965;52.242;20.886;2023-02-20T08:35:32;7.10;70.60
32524;DHT22;18965;52.242;20.886;2023-02-20T08:38:06;7.10;71.50
32524;DHT22;18965;52.242;20.886;2023-02-20T08:45:25;6.90;74.50
32524;DHT22;18965;52.242;20.886;2023-02-20T08:47:55;6.70;71.40
32524;DHT22;18965;52.242;20.886;2023-02-20T08:50:21;6.60;74.20
32524;DHT22;18965;52.242;20.886;2023-02-20T08:57:42;6.40;76.70
32524;DHT22;18965;52.242;20.886;2023-02-20T09:00:09;6.30;73.00
32524;DHT22;18965;52.242;20.886;2023-02-20T09:02:35;6.40;76.50
32524;DHT22;18965;52.242;20.886;2023-02-20T09:05:00;6.30;78.40
32524;DHT22;18965;52.242;20.886;2023-02-20T09:12:18;5.90;74.00
32524;DHT22;18965;52.242;20.886;2023-02-20T09:14:45;5.80;73.10
32524;DHT22;18965;52.242;20.886;2023-02-20T09:17:10;5.70;78.40
32524;DHT22;18965;52.242;20.886;2023-02-20T09:24:28;5.50;75.10
32524;DHT22;18965;52.242;20.886;2023-02-20T09:26:59;5.30;75.00
32524;DHT22;18965;52.242;20.886;2023-02-20T09:29:26;5.40;75.30
32524;DHT22;18965;52.242;20.886;2023-02-20T09:34:18;5.20;84.60
32524;DHT22;18965;52.242;20.886;2023-02-20T09:36:44;5.30;77.80
32524;DHT22;18965;52.242;20.886;2023-02-20T09:39:09;5.30;77.30
32524;DHT22;18965;52.242;20.886;2023-02-20T09:47:36;5.20;76.40
32524;DHT22;18965;52.242;20.886;2023-02-20T09:50:17;5.20;76.40
32524;DHT22;18965;52.242;20.886;2023-02-20T09:52:51;5.20;81.00
32524;DHT22;18965;52.242;20.886;2023-02-20T09:55:20;5.00;80.20
32524;DHT22;18965;52.242;20.886;2023-02-20T09:57:48;5.10;77.20
32524;DHT22;18965;52.242;20.886;2023-02-20T10:00:30;5.10;77.80
32524;DHT22;18965;52.242;20.886;2023-02-20T10:03:11;5.10;79.10
32524;DHT22;18965;52.242;20.886;2023-02-20T10:05:38;5.00;77.40
32524;DHT22;18965;52.242;20.886;2023-02-20T10:08:09;5.10;79.00
32524;DHT22;18965;52.242;20.886;2023-02-20T10:19:02;5.00;78.20
32524;DHT22;18965;52.242;20.886;2023-02-20T10:26:54;4.90;78.50
32524;DHT22;18965;52.242;20.886;2023-02-20T10:29:25;4.80;78.80
32524;DHT22;18965;52.242;20.886;2023-02-20T10:34:30;4.90;84.20
32524;DHT22;18965;52.242;20.886;2023-02-20T10:37:17;5.00;80.30
32524;DHT22;18965;52.242;20.886;2023-02-20T10:48:52;5.00;79.70
32524;DHT22;18965;52.242;20.886;2023-02-20T10:51:33;5.00;80.10
32524;DHT22;18965;52.242;20.886;2023-02-20T10:54:04;4.90;82.00
32524;DHT22;18965;52.242;20.886;2023-02-20T11:01:55;5.00;82.80
32524;DHT22;18965;52.242;20.886;2023-02-20T11:04:29;5.60;83.40
32524;DHT22;18965;52.242;20.886;2023-02-20T11:07:00;5.10;82.60
32524;DHT22;18965;52.242;20.886;2023-02-20T11:09:27;4.70;83.50
32524;DHT22;18965;52.242;20.886;2023-02-20T11:11:53;4.80;80.30
32524;DHT22;18965;52.242;20.886;2023-02-20T11:17:11;4.90;81.10
32524;DHT22;18965;52.242;20.886;2023-02-20T11:19:42;4.70;82.90
32524;DHT22;18965;52.242;20.886;2023-02-20T11:24:39;4.70;87.30
32524;DHT22;18965;52.242;20.886;2023-02-20T11:27:13;4.60;88.10
32524;DHT22;18965;52.242;20.886;2023-02-20T11:29:47;4.70;88.40
32524;DHT22;18965;52.242;20.886;2023-02-20T11:32:30;7.00;82.90
32524;DHT22;18965;52.242;20.886;2023-02-20T11:35:05;4.80;87.20
32524;DHT22;18965;52.242;20.886;2023-02-20T11:37:36;5.00;83.30
32524;DHT22;18965;52.242;20.886;2023-02-20T11:40:02;4.80;88.10
32524;DHT22;18965;52.242;20.886;2023-02-20T11:42:34;4.70;85.50
32524;DHT22;18965;52.242;20.886;2023-02-20T11:45:22;5.00;83.90
32524;DHT22;18965;52.242;20.886;2023-02-20T11:50:43;5.00;83.30
32524;DHT22;18965;52.242;20.886;2023-02-20T11:53:28;5.60;83.40
32524;DHT22;18965;52.242;20.886;2023-02-20T11:56:17;5.10;83.50
32524;DHT22;18965;52.242;20.886;2023-02-20T11:58:45;5.10;84.30
32524;DHT22;18965;52.242;20.886;2023-02-20T12:01:37;5.20;82.50
32524;DHT22;18965;52.242;20.886;2023-02-20T12:04:18;5.40;84.20
32524;DHT22;18965;52.242;20.886;2023-02-20T12:06:43;5.30;84.00
32524;DHT22;18965;52.242;20.886;2023-02-20T12:09:16;5.40;83.40
32524;DHT22;18965;52.242;20.886;2023-02-20T12:11:42;5.40;83.80
32524;DHT22;18965;52.242;20.886;2023-02-20T12:14:12;5.60;83.70
32524;DHT22;18965;52.242;20.886;2023-02-20T12:17:08;5.70;83.10
32524;DHT22;18965;52.242;20.886;2023-02-20T12:20:18;5.60;85.60
32524;DHT22;18965;52.242;20.886;2023-02-20T12:22:52;5.70;84.30
32524;DHT22;18965;52.242;20.886;2023-02-20T12:41:30;6.20;84.20
32524;DHT22;18965;52.242;20.886;2023-02-20T13:00:58;5.70;84.10
32524;DHT22;18965;52.242;20.886;2023-02-20T13:04:16;6.40;83.10
32524;DHT22;18965;52.242;20.886;2023-02-20T13:06:14;6.50;82.70
32524;DHT22;18965;52.242;20.886;2023-02-20T13:08:58;6.50;82.90
32524;DHT22;18965;52.242;20.886;2023-02-20T13:11:29;6.60;83.20
32524;DHT22;18965;52.242;20.886;2023-02-20T13:22:34;6.80;83.30
32524;DHT22;18965;52.242;20.886;2023-02-20T13:28:01;6.90;82.60
32524;DHT22;18965;52.242;20.886;2023-02-20T13:30:27;7.00;82.90
32524;DHT22;18965;52.242;20.886;2023-02-20T13:33:21;7.10;82.80
32524;DHT22;18965;52.242;20.886;2023-02-20T13:38:15;7.10;82.90
32524;DHT22;18965;52.242;20.886;2023-02-20T13:41:23;7.20;82.80
32524;DHT22;18965;52.242;20.886;2023-02-20T13:43:34;7.20;82.60
32524;DHT22;18965;52.242;20.886;2023-02-20T13:53:52;7.40;82.80
32524;DHT22;18965;52.242;20.886;2023-02-20T13:56:44;7.50;82.10
32524;DHT22;18965;52.242;20.886;2023-02-20T13:59:13;7.50;81.80
32524;DHT22;18965;52.242;20.886;2023-02-20T14:04:27;7.60;82.70
32524;DHT22;18965;52.242;20.886;2023-02-20T14:06:54;7.60;81.70
32524;DHT22;18965;52.242;20.886;2023-02-20T14:09:25;7.70;81.80
32524;DHT22;18965;52.242;20.886;2023-02-20T14:15:11;7.70;81.70
32524;DHT22;18965;52.242;20.886;2023-02-20T14:17:37;7.80;81.70
32524;DHT22;18965;52.242;20.886;2023-02-20T14:20:18;7.80;81.50
32524;DHT22;18965;52.242;20.886;2023-02-20T14:22:44;7.80;81.40
32524;DHT22;18965;52.242;20.886;2023-02-20T14:25:23;7.80;81.40
32524;DHT22;18965;52.242;20.886;2023-02-20T14:27:49;7.90;80.90
32524;DHT22;18965;52.242;20.886;2023-02-20T14:30:20;7.90;81.40
32524;DHT22;18965;52.242;20.886;2023-02-20T14:32:52;7.90;81.20
32524;DHT22;18965;52.242;20.886;2023-02-20T14:40:51;8.00;81.20
32524;DHT22;18965;52.242;20.886;2023-02-20T14:43:22;8.10;81.20
32524;DHT22;18965;52.242;20.886;2023-02-20T14:46:06;8.10;81.00
32524;DHT22;18965;52.242;20.886;2023-02-20T14:48:35;8.10;80.80
32524;DHT22;18965;52.242;20.886;2023-02-20T14:54:09;8.20;80.60
32524;DHT22;18965;52.242;20.886;2023-02-20T14:56:35;8.30;79.80
32524;DHT22;18965;52.242;20.886;2023-02-20T14:59:25;8.40;79.80
32524;DHT22;18965;52.242;20.886;2023-02-20T15:02:34;8.40;80.30
32524;DHT22;18965;52.242;20.886;2023-02-20T15:04:51;8.40;80.20
32524;DHT22;18965;52.242;20.886;2023-02-20T15:07:19;8.40;80.00
32524;DHT22;18965;52.242;20.886;2023-02-20T15:09:47;8.50;80.00
32524;DHT22;18965;52.242;20.886;2023-02-20T15:12:35;8.50;79.90
32524;DHT22;18965;52.242;20.886;2023-02-20T15:15:09;8.60;79.90
32524;DHT22;18965;52.242;20.886;2023-02-20T15:17:37;8.60;79.70
32524;DHT22;18965;52.242;20.886;2023-02-20T15:22:44;8.60;79.60
32524;DHT22;18965;52.242;20.886;2023-02-20T15:25:30;8.60;79.50
32524;DHT22;18965;52.242;20.886;2023-02-20T15:28:12;8.60;79.50
32524;DHT22;18965;52.242;20.886;2023-02-20T15:33:50;8.60;79.40
32524;DHT22;18965;52.242;20.886;2023-02-20T15:36:20;8.80;78.90
32524;DHT22;18965;52.242;20.886;2023-02-20T15:38:47;8.80;82.00
32524;DHT22;18965;52.242;20.886;2023-02-20T15:41:16;8.60;78.90
32524;DHT22;18965;52.242;20.886;2023-02-20T15:43:48;8.00;79.10
32524;DHT22;18965;52.242;20.886;2023-02-20T15:46:18;8.70;78.30
32524;DHT22;18965;52.242;20.886;2023-02-20T15:48:45;8.70;83.00
32524;DHT22;18965;52.242;20.886;2023-02-20T15:51:16;8.80;82.40
32524;DHT22;18965;52.242;20.886;2023-02-20T15:53:44;8.80;80.10
32524;DHT22;18965;52.242;20.886;2023-02-20T15:58:38;8.90;78.20
32524;DHT22;18965;52.242;20.886;2023-02-20T16:01:08;8.90;82.20
32524;DHT22;18965;52.242;20.886;2023-02-20T16:03:36;8.90;77.90
32524;DHT22;18965;52.242;20.886;2023-02-20T16:06:02;8.90;81.90
32524;DHT22;18965;52.242;20.886;2023-02-20T16:08:34;9.00;80.50
32524;DHT22;18965;52.242;20.886;2023-02-20T16:11:00;9.00;78.10
32524;DHT22;18965;52.242;20.886;2023-02-20T16:13:37;9.00;77.60
32524;DHT22;18965;52.242;20.886;2023-02-20T16:16:30;9.00;79.50
32524;DHT22;18965;52.242;20.886;2023-02-20T16:18:58;9.00;77.30
32524;DHT22;18965;52.242;20.886;2023-02-20T16:21:27;9.00;80.20
32524;DHT22;18965;52.242;20.886;2023-02-20T16:23:56;9.10;81.80
32524;DHT22;18965;52.242;20.886;2023-02-20T16:26:26;9.10;79.80
32524;DHT22;18965;52.242;20.886;2023-02-20T16:29:02;9.10;77.20
32524;DHT22;18965;52.242;20.886;2023-02-20T16:34:38;9.10;77.10
32524;DHT22;18965;52.242;20.886;2023-02-20T16:42:16;9.10;80.70
32524;DHT22;18965;52.242;20.886;2023-02-20T16:44:44;9.20;77.20
32524;DHT22;18965;52.242;20.886;2023-02-20T16:47:20;9.10;81.40
32524;DHT22;18965;52.242;20.886;2023-02-20T16:49:52;9.10;77.60
32524;DHT22;18965;52.242;20.886;2023-02-20T16:52:34;9.10;77.80
32524;DHT22;18965;52.242;20.886;2023-02-20T16:55:02;9.10;77.90
32524;DHT22;18965;52.242;20.886;2023-02-20T16:57:31;9.10;78.50
32524;DHT22;18965;52.242;20.886;2023-02-20T16:59:58;9.10;78.40
32524;DHT22;18965;52.242;20.886;2023-02-20T17:02:28;8.90;83.90
32524;DHT22;18965;52.242;20.886;2023-02-20T17:04:57;9.00;82.90
32524;DHT22;18965;52.242;20.886;2023-02-20T17:07:24;9.00;78.80
32524;DHT22;18965;52.242;20.886;2023-02-20T17:09:52;8.90;79.30
32524;DHT22;18965;52.242;20.886;2023-02-20T17:12:21;8.80;81.50
32524;DHT22;18965;52.242;20.886;2023-02-20T17:14:49;8.90;84.80
32524;DHT22;18965;52.242;20.886;2023-02-20T17:17:20;8.80;82.40
32524;DHT22;18965;52.242;20.886;2023-02-20T17:19:46;8.90;82.40
32524;DHT22;18965;52.242;20.886;2023-02-20T17:22:13;8.80;80.20
32524;DHT22;18965;52.242;20.886;2023-02-20T17:24:42;8.90;83.80
32524;DHT22;18965;52.242;20.886;2023-02-20T17:27:10;8.80;80.70
32524;DHT22;18965;52.242;20.886;2023-02-20T17:29:37;8.80;80.40
32524;DHT22;18965;52.242;20.886;2023-02-20T17:32:05;8.80;85.10
32524;DHT22;18965;52.242;20.886;2023-02-20T17:34:31;8.80;84.90
32524;DHT22;18965;52.242;20.886;2023-02-20T17:39:24;8.80;85.40
32524;DHT22;18965;52.242;20.886;2023-02-20T17:41:53;8.90;85.20
32524;DHT22;18965;52.242;20.886;2023-02-20T17:44:23;8.90;85.60
32524;DHT22;18965;52.242;20.886;2023-02-20T17:46:51;8.80;86.10
32524;DHT22;18965;52.242;20.886;2023-02-20T17:49:19;8.50;80.80
32524;DHT22;18965;52.242;20.886;2023-02-20T17:51:45;8.90;85.50
32524;DHT22;18965;52.242;20.886;2023-02-20T17:54:11;8.90;85.90
32524;DHT22;18965;52.242;20.886;2023-02-20T17:56:42;8.90;86.50
32524;DHT22;18965;52.242;20.886;2023-02-20T17:59:09;8.90;81.10
32524;DHT22;18965;52.242;20.886;2023-02-20T18:01:35;8.90;86.90
32524;DHT22;18965;52.242;20.886;2023-02-20T18:11:21;8.80;85.70
32524;DHT22;18965;52.242;20.886;2023-02-20T18:16:14;8.80;86.30
32524;DHT22;18965;52.242;20.886;2023-02-20T18:18:41;8.80;82.10
32524;DHT22;18965;52.242;20.886;2023-02-20T18:21:15;8.80;82.10
32524;DHT22;18965;52.242;20.886;2023-02-20T18:26:07;8.90;87.10
32524;DHT22;18965;52.242;20.886;2023-02-20T18:30:59;8.80;84.80
32524;DHT22;18965;52.242;20.886;2023-02-20T18:33:25;8.80;87.00
32524;DHT22;18965;52.242;20.886;2023-02-20T18:38:17;8.80;87.30
32524;DHT22;18965;52.242;20.886;2023-02-20T18:40:43;8.80;87.50
32524;DHT22;18965;52.242;20.886;2023-02-20T18:43:13;8.80;87.70
32524;DHT22;18965;52.242;20.886;2023-02-20T18:45:40;8.80;82.90
32524;DHT22;18965;52.242;20.886;2023-02-20T18:48:07;8.80;83.70
32524;DHT22;18965;52.242;20.886;2023-02-20T18:50:34;8.80;83.50
32524;DHT22;18965;52.242;20.886;2023-02-20T18:53:01;8.70;83.90
32524;DHT22;18965;52.242;20.886;2023-02-20T18:55:27;8.80;84.50
32524;DHT22;18965;52.242;20.886;2023-02-20T18:57:55;8.80;87.00
32524;DHT22;18965;52.242;20.886;2023-02-20T19:00:25;9.20;88.00
32524;DHT22;18965;52.242;20.886;2023-02-20T19:02:53;8.80;86.20
32524;DHT22;18965;52.242;20.886;2023-02-20T19:05:20;8.80;84.80
32524;DHT22;18965;52.242;20.886;2023-02-20T19:07:49;8.80;85.50
32524;DHT22;18965;52.242;20.886;2023-02-20T19:10:25;8.90;85.00
32524;DHT22;18965;52.242;20.886;2023-02-20T19:12:53;8.90;86.90
32524;DHT22;18965;52.242;20.886;2023-02-20T19:15:20;8.80;87.00
32524;DHT22;18965;52.242;20.886;2023-02-20T19:17:50;8.80;84.30
32524;DHT22;18965;52.242;20.886;2023-02-20T19:20:20;8.90;87.00
32524;DHT22;18965;52.242;20.886;2023-02-20T19:22:46;8.90;84.90
32524;DHT22;18965;52.242;20.886;2023-02-20T19:25:13;8.50;86.70
32524;DHT22;18965;52.242;20.886;2023-02-20T19:27:39;8.90;87.30
32524;DHT22;18965;52.242;20.886;2023-02-20T19:30:07;8.80;87.30
32524;DHT22;18965;52.242;20.886;2023-02-20T19:32:35;8.90;87.70
32524;DHT22;18965;52.242;20.886;2023-02-20T19:35:01;8.90;85.80
32524;DHT22;18965;52.242;20.886;2023-02-20T19:37:27;8.90;88.50
32524;DHT22;18965;52.242;20.886;2023-02-20T19:39:53;8.90;88.40
32524;DHT22;18965;52.242;20.886;2023-02-20T19:42:20;9.00;88.60
32524;DHT22;18965;52.242;20.886;2023-02-20T19:44:47;9.00;88.70
32524;DHT22;18965;52.242;20.886;2023-02-20T19:49:45;9.10;88.70
32524;DHT22;18965;52.242;20.886;2023-02-20T19:52:13;9.10;87.50
32524;DHT22;18965;52.242;20.886;2023-02-20T19:54:43;9.00;87.80
32524;DHT22;18965;52.242;20.886;2023-02-20T19:57:10;9.10;84.30
32524;DHT22;18965;52.242;20.886;2023-02-20T20:02:03;9.10;87.70
32524;DHT22;18965;52.242;20.886;2023-02-20T20:04:31;9.10;88.10
32524;DHT22;18965;52.242;20.886;2023-02-20T20:06:58;9.00;87.90
32524;DHT22;18965;52.242;20.886;2023-02-20T20:09:26;9.10;86.00
32524;DHT22;18965;52.242;20.886;2023-02-20T20:11:53;9.20;88.10
32524;DHT22;18965;52.242;20.886;2023-02-20T20:14:19;9.10;86.80
32524;DHT22;18965;52.242;20.886;2023-02-20T20:16:46;9.00;84.60
32524;DHT22;18965;52.242;20.886;2023-02-20T20:19:12;9.10;88.60
32524;DHT22;18965;52.242;20.886;2023-02-20T20:21:39;9.00;89.30
32524;DHT22;18965;52.242;20.886;2023-02-20T20:24:06;9.00;86.20
32524;DHT22;18965;52.242;20.886;2023-02-20T20:26:35;9.00;84.90
32524;DHT22;18965;52.242;20.886;2023-02-20T20:29:02;9.00;89.60
32524;DHT22;18965;52.242;20.886;2023-02-20T20:31:39;9.00;84.90
32524;DHT22;18965;52.242;20.886;2023-02-20T20:34:05;9.00;90.00
32524;DHT22;18965;52.242;20.886;2023-02-20T20:36:32;9.00;90.00
32524;DHT22;18965;52.242;20.886;2023-02-20T20:38:58;9.00;90.00
32524;DHT22;18965;52.242;20.886;2023-02-20T20:41:24;9.00;90.00
32524;DHT22;18965;52.242;20.886;2023-02-20T20:43:51;9.00;85.30
32524;DHT22;18965;52.242;20.886;2023-02-20T20:46:17;9.00;89.70
32524;DHT22;18965;52.242;20.886;2023-02-20T20:48:46;9.00;90.00
32524;DHT22;18965;52.242;20.886;2023-02-20T20:51:14;8.90;89.70
32524;DHT22;18965;52.242;20.886;2023-02-20T20:53:41;9.00;89.50
32524;DHT22;18965;52.242;20.886;2023-02-20T20:56:07;9.10;87.80
32524;DHT22;18965;52.242;20.886;2023-02-20T21:01:01;9.00;90.00
32524;DHT22;18965;52.242;20.886;2023-02-20T21:03:26;9.00;90.10
32524;DHT22;18965;52.242;20.886;2023-02-20T21:05:52;9.10;90.80
32524;DHT22;18965;52.242;20.886;2023-02-20T21:08:18;9.10;87.30
32524;DHT22;18965;52.242;20.886;2023-02-20T21:13:11;9.10;87.50
32524;DHT22;18965;52.242;20.886;2023-02-20T21:15:37;9.10;89.20
32524;DHT22;18965;52.242;20.886;2023-02-20T21:18:04;9.10;89.30
32524;DHT22;18965;52.242;20.886;2023-02-20T21:20:30;9.10;85.80
32524;DHT22;18965;52.242;20.886;2023-02-20T21:23:00;9.30;85.40
32524;DHT22;18965;52.242;20.886;2023-02-20T21:25:26;9.20;89.70
32524;DHT22;18965;52.242;20.886;2023-02-20T21:27:54;9.00;89.10
32524;DHT22;18965;52.242;20.886;2023-02-20T21:30:22;9.20;91.00
32524;DHT22;18965;52.242;20.886;2023-02-20T21:32:48;9.40;89.30
32524;DHT22;18965;52.242;20.886;2023-02-20T21:35:19;9.20;84.90
32524;DHT22;18965;52.242;20.886;2023-02-20T21:37:46;9.20;91.00
32524;DHT22;18965;52.242;20.886;2023-02-20T21:40:12;9.30;89.50
32524;DHT22;18965;52.242;20.886;2023-02-20T21:45:23;9.20;91.00
32524;DHT22;18965;52.242;20.886;2023-02-20T21:50:15;9.10;85.00
32524;DHT22;18965;52.242;20.886;2023-02-20T21:55:11;9.20;84.90
32524;DHT22;18965;52.242;20.886;2023-02-20T21:57:37;9.80;86.70
32524;DHT22;18965;52.242;20.886;2023-02-20T22:00:05;9.20;84.90
32524;DHT22;18965;52.242;20.886;2023-02-20T22:02:31;9.20;90.10
32524;DHT22;18965;52.242;20.886;2023-02-20T22:04:57;8.70;88.30
32524;DHT22;18965;52.242;20.886;2023-02-20T22:07:23;9.20;90.60
32524;DHT22;18965;52.242;20.886;2023-02-20T22:10:07;9.20;84.90
32524;DHT22;18965;52.242;20.886;2023-02-20T22:12:52;9.20;90.80
32524;DHT22;18965;52.242;20.886;2023-02-20T22:15:37;9.20;90.20
32524;DHT22;18965;52.242;20.886;2023-02-20T22:18:21;9.20;90.80